sensor_id;sensor_type;location;lat;lon;timestamp;P1;durP1;ratioP1;P2;durP2;ratioP2
5416;SDS011;2731;50.754;12.990;2023-01-13T00:01:44;1.63;;;0.32;;
5416;SDS011;2731;50.754;12.990;2023-01-13T00:04:10;0.65;;;0.40;;
5416;SDS011;2731;50.754;12.990;2023-01-13T00:06:38;4.60;;;0.52;;
5416;SDS011;2731;50.754;12.990;2023-01-13T00:09:05;0.93;;;0.40;;
5416;SDS011;2731;50.754;12.990;2023-01-13T00:11:30;0.98;;;0.60;;
5416;SDS011;2731;50.754;12.990;2023-01-13T00:13:55;2.72;;;0.68;;
5416;SDS011;2731;50.754;12.990;2023-01-13T00:16:21;1.08;;;0.40;;
5416;SDS011;2731;50.754;12.990;2023-01-13T00:18:47;0.70;;;0.45;;
5416;SDS011;2731;50.754;12.990;2023-01-13T00:23:39;0.38;;;0.28;;
5416;SDS011;2731;50.754;12.990;2023-01-13T00:26:06;0.30;;;0.30;;
5416;SDS011;2731;50.754;12.990;2023-01-13T00:28:35;1.40;;;0.45;;
5416;SDS011;2731;50.754;12.990;2023-01-13T00:36:00;0.47;;;0.30;;
5416;SDS011;2731;50.754;12.990;2023-01-13T00:38:26;0.60;;;0.32;;
5416;SDS011;2731;50.754;12.990;2023-01-13T00:40:58;1.20;;;0.43;;
5416;SDS011;2731;50.754;12.990;2023-01-13T00:43:30;0.25;;;0.20;;
5416;SDS011;2731;50.754;12.990;2023-01-13T00:45:56;1.35;;;0.32;;
5416;SDS011;2731;50.754;12.990;2023-01-13T00:48:23;0.70;;;0.40;;
5416;SDS011;2731;50.754;12.990;2023-01-13T00:55:47;1.45;;;0.20;;
5416;SDS011;2731;50.754;12.990;2023-01-13T00:58:13;1.60;;;0.40;;
5416;SDS011;2731;50.754;12.990;2023-01-13T01:00:40;0.93;;;0.32;;
5416;SDS011;2731;50.754;12.990;2023-01-13T01:03:06;1.38;;;0.30;;
5416;SDS011;2731;50.754;12.990;2023-01-13T01:05:37;1.15;;;0.30;;
5416;SDS011;2731;50.754;12.990;2023-01-13T01:08:03;0.65;;;0.30;;
5416;SDS011;2731;50.754;12.990;2023-01-13T01:10:29;0.45;;;0.30;;
5416;SDS011;2731;50.754;12.990;2023-01-13T01:12:55;1.10;;;0.40;;
5416;SDS011;2731;50.754;12.990;2023-01-13T01:15:20;0.52;;;0.30;;
5416;SDS011;2731;50.754;12.990;2023-01-13T01:17:46;0.75;;;0.32;;
5416;SDS011;2731;50.754;12.990;2023-01-13T01:20:13;2.40;;;0.85;;
5416;SDS011;2731;50.754;12.990;2023-01-13T01:22:38;2.85;;;0.57;;
5416;SDS011;2731;50.754;12.990;2023-01-13T01:25:06;0.40;;;0.40;;
5416;SDS011;2731;50.754;12.990;2023-01-13T01:27:31;0.80;;;0.57;;
5416;SDS011;2731;50.754;12.990;2023-01-13T01:29:57;0.68;;;0.30;;
5416;SDS011;2731;50.754;12.990;2023-01-13T01:32:22;2.25;;;0.20;;
5416;SDS011;2731;50.754;12.990;2023-01-13T01:34:53;0.73;;;0.20;;
5416;SDS011;2731;50.754;12.990;2023-01-13T01:37:18;1.65;;;0.35;;
5416;SDS011;2731;50.754;12.990;2023-01-13T01:39:44;1.80;;;0.30;;
5416;SDS011;2731;50.754;12.990;2023-01-13T01:42:14;1.33;;;0.40;;
5416;SDS011;2731;50.754;12.990;2023-01-13T01:45:00;0.70;;;0.20;;
5416;SDS011;2731;50.754;12.990;2023-01-13T01:47:49;1.30;;;0.40;;
5416;SDS011;2731;50.754;12.990;2023-01-13T01:50:18;2.17;;;0.85;;
5416;SDS011;2731;50.754;12.990;2023-01-13T01:52:45;1.55;;;0.47;;
5416;SDS011;2731;50.754;12.990;2023-01-13T01:55:36;1.38;;;0.30;;
5416;SDS011;2731;50.754;12.990;2023-01-13T01:58:09;1.60;;;0.30;;
5416;SDS011;2731;50.754;12.990;2023-01-13T02:00:36;0.30;;;0.30;;
5416;SDS011;2731;50.754;12.990;2023-01-13T02:03:02;0.30;;;0.20;;
5416;SDS011;2731;50.754;12.990;2023-01-13T02:05:28;0.32;;;0.30;;
5416;SDS011;2731;50.754;12.990;2023-01-13T02:07:53;1.42;;;0.47;;
5416;SDS011;2731;50.754;12.990;2023-01-13T02:10:22;1.65;;;0.55;;
5416;SDS011;2731;50.754;12.990;2023-01-13T02:12:50;1.67;;;0.57;;
5416;SDS011;2731;50.754;12.990;2023-01-13T02:15:17;0.65;;;0.17;;
5416;SDS011;2731;50.754;12.990;2023-01-13T02:29:06;0.10;;;0.10;;
5416;SDS011;2731;50.754;12.990;2023-01-13T02:31:53;1.65;;;0.63;;
5416;SDS011;2731;50.754;12.990;2023-01-13T02:34:23;1.25;;;0.30;;
5416;SDS011;2731;50.754;12.990;2023-01-13T02:36:58;0.90;;;0.20;;
5416;SDS011;2731;50.754;12.990;2023-01-13T02:39:27;1.02;;;0.40;;
5416;SDS011;2731;50.754;12.990;2023-01-13T02:42:49;1.45;;;0.40;;
5416;SDS011;2731;50.754;12.990;2023-01-13T02:47:43;1.35;;;0.40;;
5416;SDS011;2731;50.754;12.990;2023-01-13T02:50:14;0.65;;;0.20;;
5416;SDS011;2731;50.754;12.990;2023-01-13T02:55:10;0.40;;;0.30;;
5416;SDS011;2731;50.754;12.990;2023-01-13T02:57:38;0.70;;;0.25;;
5416;SDS011;2731;50.754;12.990;2023-01-13T03:00:06;1.08;;;0.50;;
5416;SDS011;2731;50.754;12.990;2023-01-13T03:02:36;0.40;;;0.30;;
5416;SDS011;2731;50.754;12.990;2023-01-13T03:05:03;0.93;;;0.13;;
5416;SDS011;2731;50.754;12.990;2023-01-13T03:16:37;0.10;;;0.10;;
5416;SDS011;2731;50.754;12.990;2023-01-13T03:21:27;0.20;;;0.10;;
5416;SDS011;2731;50.754;12.990;2023-01-13T03:24:05;0.10;;;0.10;;
5416;SDS011;2731;50.754;12.990;2023-01-13T03:26:50;0.20;;;0.10;;
5416;SDS011;2731;50.754;12.990;2023-01-13T03:29:20;0.43;;;0.10;;
5416;SDS011;2731;50.754;12.990;2023-01-13T03:34:27;0.20;;;0.20;;
5416;SDS011;2731;50.754;12.990;2023-01-13T03:36:58;1.42;;;0.22;;
5416;SDS011;2731;50.754;12.990;2023-01-13T03:39:28;0.20;;;0.20;;
5416;SDS011;2731;50.754;12.990;2023-01-13T03:41:57;0.30;;;0.17;;
5416;SDS011;2731;50.754;12.990;2023-01-13T03:44:33;0.25;;;0.20;;
5416;SDS011;2731;50.754;12.990;2023-01-13T03:49:51;0.93;;;0.20;;
5416;SDS011;2731;50.754;12.990;2023-01-13T03:52:44;0.22;;;0.20;;
5416;SDS011;2731;50.754;12.990;2023-01-13T03:57:47;1.13;;;0.10;;
5416;SDS011;2731;50.754;12.990;2023-01-13T04:00:16;0.10;;;0.10;;
5416;SDS011;2731;50.754;12.990;2023-01-13T04:05:11;0.30;;;0.10;;
5416;SDS011;2731;50.754;12.990;2023-01-13T04:07:44;0.20;;;0.20;;
5416;SDS011;2731;50.754;12.990;2023-01-13T04:10:27;0.17;;;0.10;;
5416;SDS011;2731;50.754;12.990;2023-01-13T04:12:57;0.10;;;0.10;;
5416;SDS011;2731;50.754;12.990;2023-01-13T04:15:28;0.45;;;0.30;;
5416;SDS011;2731;50.754;12.990;2023-01-13T04:18:07;1.23;;;0.10;;
5416;SDS011;2731;50.754;12.990;2023-01-13T04:20:35;0.60;;;0.20;;
5416;SDS011;2731;50.754;12.990;2023-01-13T04:23:01;0.20;;;0.10;;
5416;SDS011;2731;50.754;12.990;2023-01-13T04:25:27;0.45;;;0.10;;
5416;SDS011;2731;50.754;12.990;2023-01-13T04:27:52;0.25;;;0.20;;
5416;SDS011;2731;50.754;12.990;2023-01-13T04:30:18;0.25;;;0.22;;
5416;SDS011;2731;50.754;12.990;2023-01-13T04:32:43;0.40;;;0.10;;
5416;SDS011;2731;50.754;12.990;2023-01-13T04:35:09;1.08;;;0.20;;
5416;SDS011;2731;50.754;12.990;2023-01-13T04:37:34;0.20;;;0.20;;
5416;SDS011;2731;50.754;12.990;2023-01-13T04:40:00;0.63;;;0.30;;
5416;SDS011;2731;50.754;12.990;2023-01-13T04:42:26;0.17;;;0.10;;
5416;SDS011;2731;50.754;12.990;2023-01-13T04:44:51;0.25;;;0.13;;
5416;SDS011;2731;50.754;12.990;2023-01-13T04:47:17;0.98;;;0.10;;
5416;SDS011;2731;50.754;12.990;2023-01-13T04:49:42;0.10;;;0.10;;
5416;SDS011;2731;50.754;12.990;2023-01-13T04:52:08;0.10;;;0.10;;
5416;SDS011;2731;50.754;12.990;2023-01-13T04:54:33;0.65;;;0.20;;
5416;SDS011;2731;50.754;12.990;2023-01-13T04:56:59;0.82;;;0.17;;
5416;SDS011;2731;50.754;12.990;2023-01-13T04:59:24;0.32;;;0.20;;
5416;SDS011;2731;50.754;12.990;2023-01-13T05:01:50;0.00;;;0.00;;
5416;SDS011;2731;50.754;12.990;2023-01-13T05:04:15;0.10;;;0.10;;
5416;SDS011;2731;50.754;12.990;2023-01-13T05:06:41;0.28;;;0.22;;
5416;SDS011;2731;50.754;12.990;2023-01-13T05:09:07;0.28;;;0.10;;
5416;SDS011;2731;50.754;12.990;2023-01-13T05:11:32;0.75;;;0.17;;
5416;SDS011;2731;50.754;12.990;2023-01-13T05:14:16;0.65;;;0.25;;
5416;SDS011;2731;50.754;12.990;2023-01-13T05:17:00;0.45;;;0.35;;
5416;SDS011;2731;50.754;12.990;2023-01-13T05:19:26;0.73;;;0.35;;
5416;SDS011;2731;50.754;12.990;2023-01-13T05:21:53;0.20;;;0.10;;
5416;SDS011;2731;50.754;12.990;2023-01-13T05:24:37;0.70;;;0.20;;
5416;SDS011;2731;50.754;12.990;2023-01-13T05:27:22;0.98;;;0.35;;
5416;SDS011;2731;50.754;12.990;2023-01-13T05:29:47;1.10;;;0.25;;
5416;SDS011;2731;50.754;12.990;2023-01-13T05:32:13;0.68;;;0.30;;
5416;SDS011;2731;50.754;12.990;2023-01-13T05:34:38;0.32;;;0.20;;
5416;SDS011;2731;50.754;12.990;2023-01-13T05:37:04;0.40;;;0.22;;
5416;SDS011;2731;50.754;12.990;2023-01-13T05:39:32;0.28;;;0.20;;
5416;SDS011;2731;50.754;12.990;2023-01-13T05:42:18;0.22;;;0.20;;
5416;SDS011;2731;50.754;12.990;2023-01-13T05:45:02;0.10;;;0.10;;
5416;SDS011;2731;50.754;12.990;2023-01-13T05:47:32;0.70;;;0.20;;
5416;SDS011;2731;50.754;12.990;2023-01-13T05:49:57;0.25;;;0.10;;
5416;SDS011;2731;50.754;12.990;2023-01-13T05:52:24;0.38;;;0.28;;
5416;SDS011;2731;50.754;12.990;2023-01-13T05:54:51;0.40;;;0.20;;
5416;SDS011;2731;50.754;12.990;2023-01-13T05:57:16;0.32;;;0.20;;
5416;SDS011;2731;50.754;12.990;2023-01-13T05:59:42;0.28;;;0.25;;
5416;SDS011;2731;50.754;12.990;2023-01-13T06:02:07;0.45;;;0.20;;
5416;SDS011;2731;50.754;12.990;2023-01-13T06:04:33;0.20;;;0.15;;
5416;SDS011;2731;50.754;12.990;2023-01-13T06:06:58;0.47;;;0.10;;
5416;SDS011;2731;50.754;12.990;2023-01-13T06:09:24;0.70;;;0.10;;
5416;SDS011;2731;50.754;12.990;2023-01-13T06:11:49;0.17;;;0.17;;
5416;SDS011;2731;50.754;12.990;2023-01-13T06:14:15;0.55;;;0.20;;
5416;SDS011;2731;50.754;12.990;2023-01-13T06:16:40;0.30;;;0.30;;
5416;SDS011;2731;50.754;12.990;2023-01-13T06:19:07;0.20;;;0.20;;
5416;SDS011;2731;50.754;12.990;2023-01-13T06:21:36;0.20;;;0.20;;
5416;SDS011;2731;50.754;12.990;2023-01-13T06:24:03;1.55;;;0.20;;
5416;SDS011;2731;50.754;12.990;2023-01-13T06:26:29;0.10;;;0.10;;
5416;SDS011;2731;50.754;12.990;2023-01-13T06:28:58;0.25;;;0.10;;
5416;SDS011;2731;50.754;12.990;2023-01-13T06:31:27;0.40;;;0.17;;
5416;SDS011;2731;50.754;12.990;2023-01-13T06:33:55;0.45;;;0.35;;
5416;SDS011;2731;50.754;12.990;2023-01-13T06:36:57;0.10;;;0.10;;
5416;SDS011;2731;50.754;12.990;2023-01-13T06:39:17;0.82;;;0.17;;
5416;SDS011;2731;50.754;12.990;2023-01-13T06:41:49;1.45;;;0.10;;
5416;SDS011;2731;50.754;12.990;2023-01-13T06:44:35;0.17;;;0.10;;
5416;SDS011;2731;50.754;12.990;2023-01-13T06:47:00;0.20;;;0.17;;
5416;SDS011;2731;50.754;12.990;2023-01-13T06:49:26;0.30;;;0.20;;
5416;SDS011;2731;50.754;12.990;2023-01-13T06:51:52;0.95;;;0.13;;
5416;SDS011;2731;50.754;12.990;2023-01-13T06:54:17;0.10;;;0.10;;
5416;SDS011;2731;50.754;12.990;2023-01-13T06:56:43;0.10;;;0.10;;
5416;SDS011;2731;50.754;12.990;2023-01-13T06:59:08;0.20;;;0.20;;
5416;SDS011;2731;50.754;12.990;2023-01-13T07:01:37;0.20;;;0.10;;
5416;SDS011;2731;50.754;12.990;2023-01-13T07:04:04;0.30;;;0.20;;
5416;SDS011;2731;50.754;12.990;2023-01-13T07:06:29;0.45;;;0.10;;
5416;SDS011;2731;50.754;12.990;2023-01-13T07:08:55;0.28;;;0.20;;
5416;SDS011;2731;50.754;12.990;2023-01-13T07:11:26;0.10;;;0.08;;
5416;SDS011;2731;50.754;12.990;2023-01-13T07:13:52;0.10;;;0.10;;
5416;SDS011;2731;50.754;12.990;2023-01-13T07:16:36;0.43;;;0.30;;
5416;SDS011;2731;50.754;12.990;2023-01-13T07:19:01;0.80;;;0.30;;
5416;SDS011;2731;50.754;12.990;2023-01-13T07:21:27;1.55;;;0.00;;
5416;SDS011;2731;50.754;12.990;2023-01-13T07:23:53;0.32;;;0.13;;
5416;SDS011;2731;50.754;12.990;2023-01-13T07:26:18;1.65;;;0.15;;
5416;SDS011;2731;50.754;12.990;2023-01-13T07:28:44;0.22;;;0.00;;
5416;SDS011;2731;50.754;12.990;2023-01-13T07:31:17;0.32;;;0.03;;
5416;SDS011;2731;50.754;12.990;2023-01-13T07:33:45;0.82;;;0.20;;
5416;SDS011;2731;50.754;12.990;2023-01-13T07:36:11;0.63;;;0.20;;
5416;SDS011;2731;50.754;12.990;2023-01-13T07:38:40;0.35;;;0.20;;
5416;SDS011;2731;50.754;12.990;2023-01-13T07:41:10;0.20;;;0.10;;
5416;SDS011;2731;50.754;12.990;2023-01-13T07:43:55;0.75;;;0.20;;
5416;SDS011;2731;50.754;12.990;2023-01-13T07:46:21;0.28;;;0.20;;
5416;SDS011;2731;50.754;12.990;2023-01-13T07:48:48;0.47;;;0.38;;
5416;SDS011;2731;50.754;12.990;2023-01-13T07:51:14;0.65;;;0.20;;
5416;SDS011;2731;50.754;12.990;2023-01-13T07:53:39;0.38;;;0.30;;
5416;SDS011;2731;50.754;12.990;2023-01-13T07:56:14;0.50;;;0.40;;
5416;SDS011;2731;50.754;12.990;2023-01-13T07:58:40;2.47;;;1.17;;
5416;SDS011;2731;50.754;12.990;2023-01-13T08:01:06;1.75;;;0.60;;
5416;SDS011;2731;50.754;12.990;2023-01-13T08:03:33;1.48;;;0.75;;
5416;SDS011;2731;50.754;12.990;2023-01-13T08:06:01;1.25;;;0.55;;
5416;SDS011;2731;50.754;12.990;2023-01-13T08:08:27;1.00;;;0.63;;
5416;SDS011;2731;50.754;12.990;2023-01-13T08:10:52;0.50;;;0.30;;
5416;SDS011;2731;50.754;12.990;2023-01-13T08:13:18;0.15;;;0.15;;
5416;SDS011;2731;50.754;12.990;2023-01-13T08:15:45;0.25;;;0.25;;
5416;SDS011;2731;50.754;12.990;2023-01-13T08:18:15;1.60;;;0.20;;
5416;SDS011;2731;50.754;12.990;2023-01-13T08:20:45;0.20;;;0.20;;
5416;SDS011;2731;50.754;12.990;2023-01-13T08:23:16;0.55;;;0.10;;
5416;SDS011;2731;50.754;12.990;2023-01-13T08:25:42;0.20;;;0.20;;
5416;SDS011;2731;50.754;12.990;2023-01-13T08:28:08;1.00;;;0.10;;
5416;SDS011;2731;50.754;12.990;2023-01-13T08:30:34;0.30;;;0.20;;
5416;SDS011;2731;50.754;12.990;2023-01-13T08:33:00;0.43;;;0.30;;
5416;SDS011;2731;50.754;12.990;2023-01-13T08:35:27;0.10;;;0.10;;
5416;SDS011;2731;50.754;12.990;2023-01-13T08:37:52;0.55;;;0.20;;
5416;SDS011;2731;50.754;12.990;2023-01-13T08:40:18;0.38;;;0.20;;
5416;SDS011;2731;50.754;12.990;2023-01-13T08:42:49;0.38;;;0.38;;
5416;SDS011;2731;50.754;12.990;2023-01-13T08:45:16;0.32;;;0.13;;
5416;SDS011;2731;50.754;12.990;2023-01-13T08:47:46;0.47;;;0.20;;
5416;SDS011;2731;50.754;12.990;2023-01-13T08:50:18;0.20;;;0.17;;
5416;SDS011;2731;50.754;12.990;2023-01-13T08:52:48;0.98;;;0.73;;
5416;SDS011;2731;50.754;12.990;2023-01-13T08:55:14;0.20;;;0.20;;
5416;SDS011;2731;50.754;12.990;2023-01-13T08:57:39;0.10;;;0.10;;
5416;SDS011;2731;50.754;12.990;2023-01-13T09:00:07;1.00;;;0.17;;
5416;SDS011;2731;50.754;12.990;2023-01-13T09:02:34;0.05;;;0.05;;
5416;SDS011;2731;50.754;12.990;2023-01-13T09:04:59;0.00;;;0.00;;
5416;SDS011;2731;50.754;12.990;2023-01-13T09:07:34;0.45;;;0.10;;
5416;SDS011;2731;50.754;12.990;2023-01-13T09:10:06;1.55;;;0.10;;
5416;SDS011;2731;50.754;12.990;2023-01-13T09:12:32;0.05;;;0.00;;
5416;SDS011;2731;50.754;12.990;2023-01-13T09:15:16;1.13;;;0.20;;
5416;SDS011;2731;50.754;12.990;2023-01-13T09:17:43;0.28;;;0.10;;
5416;SDS011;2731;50.754;12.990;2023-01-13T09:20:09;0.75;;;0.20;;
5416;SDS011;2731;50.754;12.990;2023-01-13T09:22:35;0.17;;;0.17;;
5416;SDS011;2731;50.754;12.990;2023-01-13T09:25:07;0.57;;;0.20;;
5416;SDS011;2731;50.754;12.990;2023-01-13T09:27:33;0.40;;;0.10;;
5416;SDS011;2731;50.754;12.990;2023-01-13T09:29:59;4.30;;;0.70;;
5416;SDS011;2731;50.754;12.990;2023-01-13T09:32:24;0.08;;;0.08;;
5416;SDS011;2731;50.754;12.990;2023-01-13T09:34:50;2.33;;;0.50;;
5416;SDS011;2731;50.754;12.990;2023-01-13T09:37:26;0.85;;;0.25;;
5416;SDS011;2731;50.754;12.990;2023-01-13T09:39:53;0.63;;;0.22;;
5416;SDS011;2731;50.754;12.990;2023-01-13T09:45:39;0.35;;;0.30;;
5416;SDS011;2731;50.754;12.990;2023-01-13T09:48:11;1.13;;;0.50;;
5416;SDS011;2731;50.754;12.990;2023-01-13T09:53:29;1.88;;;0.38;;
5416;SDS011;2731;50.754;12.990;2023-01-13T09:56:00;0.20;;;0.20;;
5416;SDS011;2731;50.754;12.990;2023-01-13T09:58:26;0.40;;;0.20;;
5416;SDS011;2731;50.754;12.990;2023-01-13T10:01:05;0.65;;;0.30;;
5416;SDS011;2731;50.754;12.990;2023-01-13T10:03:45;1.30;;;0.20;;
5416;SDS011;2731;50.754;12.990;2023-01-13T10:08:42;3.20;;;0.43;;
5416;SDS011;2731;50.754;12.990;2023-01-13T10:16:47;0.32;;;0.13;;
5416;SDS011;2731;50.754;12.990;2023-01-13T10:19:25;0.20;;;0.20;;
5416;SDS011;2731;50.754;12.990;2023-01-13T10:27:38;1.02;;;0.20;;
5416;SDS011;2731;50.754;12.990;2023-01-13T10:32:56;0.35;;;0.28;;
5416;SDS011;2731;50.754;12.990;2023-01-13T10:38:24;1.45;;;0.52;;
5416;SDS011;2731;50.754;12.990;2023-01-13T10:41:02;0.20;;;0.20;;
5416;SDS011;2731;50.754;12.990;2023-01-13T10:43:35;1.38;;;0.22;;
5416;SDS011;2731;50.754;12.990;2023-01-13T10:46:19;0.65;;;0.20;;
5416;SDS011;2731;50.754;12.990;2023-01-13T10:48:52;0.10;;;0.10;;
5416;SDS011;2731;50.754;12.990;2023-01-13T10:51:24;0.47;;;0.20;;
5416;SDS011;2731;50.754;12.990;2023-01-13T10:53:56;0.20;;;0.15;;
5416;SDS011;2731;50.754;12.990;2023-01-13T10:56:32;1.15;;;0.43;;
5416;SDS011;2731;50.754;12.990;2023-01-13T11:02:01;11.93;;;0.50;;
5416;SDS011;2731;50.754;12.990;2023-01-13T11:07:03;0.30;;;0.20;;
5416;SDS011;2731;50.754;12.990;2023-01-13T11:09:30;1.00;;;0.38;;
5416;SDS011;2731;50.754;12.990;2023-01-13T11:11:57;0.70;;;0.40;;
5416;SDS011;2731;50.754;12.990;2023-01-13T11:17:31;0.32;;;0.30;;
5416;SDS011;2731;50.754;12.990;2023-01-13T11:22:48;0.50;;;0.45;;
5416;SDS011;2731;50.754;12.990;2023-01-13T11:27:54;0.70;;;0.20;;
5416;SDS011;2731;50.754;12.990;2023-01-13T11:30:38;0.90;;;0.38;;
5416;SDS011;2731;50.754;12.990;2023-01-13T11:38:33;1.77;;;0.30;;
5416;SDS011;2731;50.754;12.990;2023-01-13T11:43:51;7.30;;;1.02;;
5416;SDS011;2731;50.754;12.990;2023-01-13T11:46:51;0.28;;;0.22;;
5416;SDS011;2731;50.754;12.990;2023-01-13T11:49:38;1.52;;;0.30;;
5416;SDS011;2731;50.754;12.990;2023-01-13T12:03:17;1.95;;;0.32;;
5416;SDS011;2731;50.754;12.990;2023-01-13T12:06:07;1.20;;;0.32;;
5416;SDS011;2731;50.754;12.990;2023-01-13T12:11:26;0.57;;;0.35;;
5416;SDS011;2731;50.754;12.990;2023-01-13T12:16:48;0.32;;;0.30;;
5416;SDS011;2731;50.754;12.990;2023-01-13T12:19:24;1.00;;;0.50;;
5416;SDS011;2731;50.754;12.990;2023-01-13T12:24:43;3.13;;;0.32;;
5416;SDS011;2731;50.754;12.990;2023-01-13T12:27:18;2.78;;;0.50;;
5416;SDS011;2731;50.754;12.990;2023-01-13T12:29:47;1.38;;;0.22;;
5416;SDS011;2731;50.754;12.990;2023-01-13T12:32:16;2.00;;;0.35;;
5416;SDS011;2731;50.754;12.990;2023-01-13T12:37:36;1.83;;;0.30;;
5416;SDS011;2731;50.754;12.990;2023-01-13T12:43:14;0.43;;;0.20;;
5416;SDS011;2731;50.754;12.990;2023-01-13T12:46:32;1.05;;;0.30;;
5416;SDS011;2731;50.754;12.990;2023-01-13T12:51:35;1.98;;;0.30;;
5416;SDS011;2731;50.754;12.990;2023-01-13T12:57:00;0.88;;;0.40;;
5416;SDS011;2731;50.754;12.990;2023-01-13T13:02:25;2.15;;;0.40;;
5416;SDS011;2731;50.754;12.990;2023-01-13T13:04:56;1.10;;;0.28;;
5416;SDS011;2731;50.754;12.990;2023-01-13T13:07:52;1.55;;;0.30;;
5416;SDS011;2731;50.754;12.990;2023-01-13T13:10:37;0.82;;;0.40;;
5416;SDS011;2731;50.754;12.990;2023-01-13T13:15:47;2.40;;;0.70;;
5416;SDS011;2731;50.754;12.990;2023-01-13T13:28:54;0.85;;;0.60;;
5416;SDS011;2731;50.754;12.990;2023-01-13T13:34:13;0.88;;;0.30;;
5416;SDS011;2731;50.754;12.990;2023-01-13T13:39:30;1.10;;;0.70;;
5416;SDS011;2731;50.754;12.990;2023-01-13T13:45:19;0.95;;;0.32;;
5416;SDS011;2731;50.754;12.990;2023-01-13T13:50:51;1.65;;;0.60;;
5416;SDS011;2731;50.754;12.990;2023-01-13T13:53:27;1.15;;;0.50;;
5416;SDS011;2731;50.754;12.990;2023-01-13T13:55:55;1.83;;;0.27;;
5416;SDS011;2731;50.754;12.990;2023-01-13T13:58:25;0.65;;;0.40;;
5416;SDS011;2731;50.754;12.990;2023-01-13T14:00:52;1.13;;;0.73;;
5416;SDS011;2731;50.754;12.990;2023-01-13T14:03:26;0.57;;;0.35;;
5416;SDS011;2731;50.754;12.990;2023-01-13T14:05:55;1.08;;;0.60;;
5416;SDS011;2731;50.754;12.990;2023-01-13T14:08:22;0.90;;;0.55;;
5416;SDS011;2731;50.754;12.990;2023-01-13T14:10:48;1.13;;;0.60;;
5416;SDS011;2731;50.754;12.990;2023-01-13T14:16:05;1.27;;;0.50;;
5416;SDS011;2731;50.754;12.990;2023-01-13T14:18:41;1.77;;;0.40;;
5416;SDS011;2731;50.754;12.990;2023-01-13T14:21:25;0.82;;;0.50;;
5416;SDS011;2731;50.754;12.990;2023-01-13T14:24:02;1.98;;;0.60;;
5416;SDS011;2731;50.754;12.990;2023-01-13T14:26:38;1.48;;;0.55;;
5416;SDS011;2731;50.754;12.990;2023-01-13T14:29:04;3.17;;;0.52;;
5416;SDS011;2731;50.754;12.990;2023-01-13T14:31:30;1.83;;;0.70;;
5416;SDS011;2731;50.754;12.990;2023-01-13T14:33:58;1.65;;;0.50;;
5416;SDS011;2731;50.754;12.990;2023-01-13T14:41:32;0.80;;;0.50;;
5416;SDS011;2731;50.754;12.990;2023-01-13T14:44:00;3.28;;;0.60;;
5416;SDS011;2731;50.754;12.990;2023-01-13T14:46:38;0.98;;;0.40;;
5416;SDS011;2731;50.754;12.990;2023-01-13T14:49:10;1.92;;;0.55;;
5416;SDS011;2731;50.754;12.990;2023-01-13T14:51:39;2.70;;;0.43;;
5416;SDS011;2731;50.754;12.990;2023-01-13T14:57:25;1.38;;;0.77;;
5416;SDS011;2731;50.754;12.990;2023-01-13T15:02:44;1.63;;;0.60;;
5416;SDS011;2731;50.754;12.990;2023-01-13T15:10:36;2.38;;;0.70;;
5416;SDS011;2731;50.754;12.990;2023-01-13T15:13:26;1.05;;;0.35;;
5416;SDS011;2731;50.754;12.990;2023-01-13T15:15:57;3.40;;;0.67;;
5416;SDS011;2731;50.754;12.990;2023-01-13T15:18:24;1.25;;;0.40;;
5416;SDS011;2731;50.754;12.990;2023-01-13T15:20:53;3.88;;;0.90;;
5416;SDS011;2731;50.754;12.990;2023-01-13T15:23:18;3.40;;;0.63;;
5416;SDS011;2731;50.754;12.990;2023-01-13T15:25:44;2.85;;;0.63;;
5416;SDS011;2731;50.754;12.990;2023-01-13T15:28:20;5.95;;;0.95;;
5416;SDS011;2731;50.754;12.990;2023-01-13T15:30:49;2.85;;;0.85;;
5416;SDS011;2731;50.754;12.990;2023-01-13T15:33:16;4.47;;;1.08;;
5416;SDS011;2731;50.754;12.990;2023-01-13T15:35:43;2.58;;;0.68;;
5416;SDS011;2731;50.754;12.990;2023-01-13T15:38:15;2.58;;;0.82;;
5416;SDS011;2731;50.754;12.990;2023-01-13T15:40:42;1.58;;;0.95;;
5416;SDS011;2731;50.754;12.990;2023-01-13T15:43:41;6.00;;;1.00;;
5416;SDS011;2731;50.754;12.990;2023-01-13T15:46:23;2.42;;;0.88;;
5416;SDS011;2731;50.754;12.990;2023-01-13T15:49:24;1.73;;;0.90;;
5416;SDS011;2731;50.754;12.990;2023-01-13T15:51:51;4.20;;;0.70;;
5416;SDS011;2731;50.754;12.990;2023-01-13T15:54:16;5.47;;;0.68;;
5416;SDS011;2731;50.754;12.990;2023-01-13T15:56:46;1.10;;;0.60;;
5416;SDS011;2731;50.754;12.990;2023-01-13T15:59:18;1.65;;;0.90;;
5416;SDS011;2731;50.754;12.990;2023-01-13T16:01:45;1.80;;;0.52;;
5416;SDS011;2731;50.754;12.990;2023-01-13T16:04:11;1.55;;;0.35;;
5416;SDS011;2731;50.754;12.990;2023-01-13T16:06:37;0.85;;;0.50;;
5416;SDS011;2731;50.754;12.990;2023-01-13T16:09:03;3.47;;;0.88;;
5416;SDS011;2731;50.754;12.990;2023-01-13T16:11:29;0.63;;;0.40;;
5416;SDS011;2731;50.754;12.990;2023-01-13T16:13:55;2.25;;;0.60;;
5416;SDS011;2731;50.754;12.990;2023-01-13T16:16:24;2.80;;;0.60;;
5416;SDS011;2731;50.754;12.990;2023-01-13T16:18:52;3.47;;;0.63;;
5416;SDS011;2731;50.754;12.990;2023-01-13T16:21:18;4.15;;;0.65;;
5416;SDS011;2731;50.754;12.990;2023-01-13T16:23:45;5.28;;;1.17;;
5416;SDS011;2731;50.754;12.990;2023-01-13T16:26:19;2.08;;;0.47;;
5416;SDS011;2731;50.754;12.990;2023-01-13T16:28:46;0.43;;;0.40;;
5416;SDS011;2731;50.754;12.990;2023-01-13T16:31:22;4.50;;;1.00;;
5416;SDS011;2731;50.754;12.990;2023-01-13T16:33:52;3.95;;;1.02;;
5416;SDS011;2731;50.754;12.990;2023-01-13T16:36:19;5.75;;;1.45;;
5416;SDS011;2731;50.754;12.990;2023-01-13T16:38:45;4.05;;;0.63;;
5416;SDS011;2731;50.754;12.990;2023-01-13T16:41:12;3.20;;;0.80;;
5416;SDS011;2731;50.754;12.990;2023-01-13T16:43:38;2.92;;;1.15;;
5416;SDS011;2731;50.754;12.990;2023-01-13T16:46:45;8.82;;;1.33;;
5416;SDS011;2731;50.754;12.990;2023-01-13T16:48:54;4.47;;;0.88;;
5416;SDS011;2731;50.754;12.990;2023-01-13T16:51:24;10.35;;;1.67;;
5416;SDS011;2731;50.754;12.990;2023-01-13T16:53:49;2.70;;;0.70;;
5416;SDS011;2731;50.754;12.990;2023-01-13T16:58:48;2.35;;;1.05;;
5416;SDS011;2731;50.754;12.990;2023-01-13T17:03:52;4.25;;;1.40;;
5416;SDS011;2731;50.754;12.990;2023-01-13T17:06:20;4.78;;;1.80;;
5416;SDS011;2731;50.754;12.990;2023-01-13T17:08:54;7.70;;;1.50;;
5416;SDS011;2731;50.754;12.990;2023-01-13T17:11:25;5.20;;;0.98;;
5416;SDS011;2731;50.754;12.990;2023-01-13T17:13:54;3.50;;;1.58;;
5416;SDS011;2731;50.754;12.990;2023-01-13T17:16:20;5.53;;;1.35;;
5416;SDS011;2731;50.754;12.990;2023-01-13T17:18:49;9.32;;;1.42;;
5416;SDS011;2731;50.754;12.990;2023-01-13T17:21:15;4.90;;;0.95;;
5416;SDS011;2731;50.754;12.990;2023-01-13T17:23:41;6.15;;;2.15;;
5416;SDS011;2731;50.754;12.990;2023-01-13T17:26:08;10.63;;;1.30;;
5416;SDS011;2731;50.754;12.990;2023-01-13T17:28:58;6.38;;;1.33;;
5416;SDS011;2731;50.754;12.990;2023-01-13T17:31:25;4.25;;;1.30;;
5416;SDS011;2731;50.754;12.990;2023-01-13T17:33:51;6.25;;;1.40;;
5416;SDS011;2731;50.754;12.990;2023-01-13T17:36:16;4.80;;;1.38;;
5416;SDS011;2731;50.754;12.990;2023-01-13T17:38:43;2.55;;;1.30;;
5416;SDS011;2731;50.754;12.990;2023-01-13T17:41:12;3.95;;;1.02;;
5416;SDS011;2731;50.754;12.990;2023-01-13T17:43:39;4.32;;;1.60;;
5416;SDS011;2731;50.754;12.990;2023-01-13T17:46:11;4.90;;;2.58;;
5416;SDS011;2731;50.754;12.990;2023-01-13T17:48:37;5.10;;;1.70;;
5416;SDS011;2731;50.754;12.990;2023-01-13T17:51:09;6.72;;;1.40;;
5416;SDS011;2731;50.754;12.990;2023-01-13T17:53:36;3.22;;;1.13;;
5416;SDS011;2731;50.754;12.990;2023-01-13T17:56:09;4.25;;;1.27;;
5416;SDS011;2731;50.754;12.990;2023-01-13T17:58:35;2.88;;;0.90;;
5416;SDS011;2731;50.754;12.990;2023-01-13T18:01:15;2.20;;;1.10;;
5416;SDS011;2731;50.754;12.990;2023-01-13T18:06:20;4.38;;;1.10;;
5416;SDS011;2731;50.754;12.990;2023-01-13T18:08:47;6.93;;;1.38;;
5416;SDS011;2731;50.754;12.990;2023-01-13T18:11:16;5.63;;;1.42;;
5416;SDS011;2731;50.754;12.990;2023-01-13T18:13:46;3.40;;;1.13;;
5416;SDS011;2731;50.754;12.990;2023-01-13T18:16:13;4.10;;;1.13;;
5416;SDS011;2731;50.754;12.990;2023-01-13T18:18:42;3.88;;;1.23;;
5416;SDS011;2731;50.754;12.990;2023-01-13T18:24:02;11.23;;;2.33;;
5416;SDS011;2731;50.754;12.990;2023-01-13T18:26:46;3.42;;;1.30;;